sensor_id;sensor_type;location;lat;lon;timestamp;P1;durP1;ratioP1;P2;durP2;ratioP2
18917;SDS011;9591;52.742;13.650;2023-06-22T00:00:40;32.13;;;15.77;;
18917;SDS011;9591;52.742;13.650;2023-06-22T00:03:28;26.70;;;15.17;;
18917;SDS011;9591;52.742;13.650;2023-06-22T00:06:15;26.23;;;15.37;;
18917;SDS011;9591;52.742;13.650;2023-06-22T00:09:02;25.93;;;16.13;;
18917;SDS011;9591;52.742;13.650;2023-06-22T00:11:50;26.67;;;16.00;;
18917;SDS011;9591;52.742;13.650;2023-06-22T00:14:37;25.23;;;15.03;;
18917;SDS011;9591;52.742;13.650;2023-06-22T00:17:23;25.20;;;15.20;;
18917;SDS011;9591;52.742;13.650;2023-06-22T00:20:10;23.93;;;14.60;;
18917;SDS011;9591;52.742;13.650;2023-06-22T00:22:59;28.40;;;16.40;;
18917;SDS011;9591;52.742;13.650;2023-06-22T00:25:46;29.50;;;16.70;;
18917;SDS011;9591;52.742;13.650;2023-06-22T00:28:34;26.40;;;15.90;;
18917;SDS011;9591;52.742;13.650;2023-06-22T00:31:21;26.53;;;15.87;;
18917;SDS011;9591;52.742;13.650;2023-06-22T00:34:11;25.87;;;14.83;;
18917;SDS011;9591;52.742;13.650;2023-06-22T00:36:58;28.53;;;15.20;;
18917;SDS011;9591;52.742;13.650;2023-06-22T00:39:45;26.70;;;14.83;;
18917;SDS011;9591;52.742;13.650;2023-06-22T00:42:32;25.73;;;15.57;;
18917;SDS011;9591;52.742;13.650;2023-06-22T00:45:20;28.37;;;16.07;;
18917;SDS011;9591;52.742;13.650;2023-06-22T00:48:08;28.13;;;15.17;;
18917;SDS011;9591;52.742;13.650;2023-06-22T00:50:54;27.40;;;15.40;;
18917;SDS011;9591;52.742;13.650;2023-06-22T00:53:41;27.60;;;16.37;;
18917;SDS011;9591;52.742;13.650;2023-06-22T00:56:28;25.60;;;15.30;;
18917;SDS011;9591;52.742;13.650;2023-06-22T00:59:15;27.47;;;15.50;;
18917;SDS011;9591;52.742;13.650;2023-06-22T01:02:04;28.73;;;14.70;;
18917;SDS011;9591;52.742;13.650;2023-06-22T01:04:53;27.17;;;14.33;;
18917;SDS011;9591;52.742;13.650;2023-06-22T01:07:42;26.40;;;14.77;;
18917;SDS011;9591;52.742;13.650;2023-06-22T01:10:40;23.90;;;14.03;;
18917;SDS011;9591;52.742;13.650;2023-06-22T01:13:33;24.77;;;14.40;;
18917;SDS011;9591;52.742;13.650;2023-06-22T01:16:24;23.67;;;13.43;;
18917;SDS011;9591;52.742;13.650;2023-06-22T01:19:19;25.70;;;15.17;;
18917;SDS011;9591;52.742;13.650;2023-06-22T01:22:15;27.07;;;15.57;;
18917;SDS011;9591;52.742;13.650;2023-06-22T01:25:07;25.03;;;14.97;;
18917;SDS011;9591;52.742;13.650;2023-06-22T01:27:58;24.80;;;15.03;;
18917;SDS011;9591;52.742;13.650;2023-06-22T01:30:52;23.23;;;14.03;;
18917;SDS011;9591;52.742;13.650;2023-06-22T01:33:50;28.03;;;14.67;;
18917;SDS011;9591;52.742;13.650;2023-06-22T01:36:39;28.63;;;14.77;;
18917;SDS011;9591;52.742;13.650;2023-06-22T01:39:26;26.93;;;15.40;;
18917;SDS011;9591;52.742;13.650;2023-06-22T01:42:13;26.27;;;15.27;;
18917;SDS011;9591;52.742;13.650;2023-06-22T01:45:00;29.53;;;15.80;;
18917;SDS011;9591;52.742;13.650;2023-06-22T01:47:53;29.00;;;15.40;;
18917;SDS011;9591;52.742;13.650;2023-06-22T01:50:43;27.07;;;15.13;;
18917;SDS011;9591;52.742;13.650;2023-06-22T01:53:36;28.53;;;14.23;;
18917;SDS011;9591;52.742;13.650;2023-06-22T01:56:23;24.63;;;14.33;;
18917;SDS011;9591;52.742;13.650;2023-06-22T01:59:14;24.90;;;13.67;;
18917;SDS011;9591;52.742;13.650;2023-06-22T02:02:14;23.97;;;14.40;;
18917;SDS011;9591;52.742;13.650;2023-06-22T02:05:05;25.43;;;15.13;;
18917;SDS011;9591;52.742;13.650;2023-06-22T02:07:56;28.40;;;15.20;;
18917;SDS011;9591;52.742;13.650;2023-06-22T02:10:49;24.80;;;14.23;;
18917;SDS011;9591;52.742;13.650;2023-06-22T02:13:39;27.10;;;14.37;;
18917;SDS011;9591;52.742;13.650;2023-06-22T02:16:28;25.03;;;14.40;;
18917;SDS011;9591;52.742;13.650;2023-06-22T02:19:22;29.47;;;15.00;;
18917;SDS011;9591;52.742;13.650;2023-06-22T02:22:12;27.43;;;15.23;;
18917;SDS011;9591;52.742;13.650;2023-06-22T02:25:01;30.50;;;14.67;;
18917;SDS011;9591;52.742;13.650;2023-06-22T02:27:48;35.20;;;16.23;;
18917;SDS011;9591;52.742;13.650;2023-06-22T02:30:35;26.27;;;15.50;;
18917;SDS011;9591;52.742;13.650;2023-06-22T02:33:25;27.70;;;15.37;;
18917;SDS011;9591;52.742;13.650;2023-06-22T02:36:12;27.63;;;15.00;;
18917;SDS011;9591;52.742;13.650;2023-06-22T02:39:00;31.77;;;14.10;;
18917;SDS011;9591;52.742;13.650;2023-06-22T02:41:49;24.40;;;14.50;;
18917;SDS011;9591;52.742;13.650;2023-06-22T02:44:36;30.13;;;15.67;;
18917;SDS011;9591;52.742;13.650;2023-06-22T02:47:22;25.40;;;14.47;;
18917;SDS011;9591;52.742;13.650;2023-06-22T02:50:09;25.63;;;15.23;;
18917;SDS011;9591;52.742;13.650;2023-06-22T02:52:56;28.23;;;15.47;;
18917;SDS011;9591;52.742;13.650;2023-06-22T02:55:47;30.63;;;16.00;;
18917;SDS011;9591;52.742;13.650;2023-06-22T02:58:34;28.27;;;16.37;;
18917;SDS011;9591;52.742;13.650;2023-06-22T03:01:28;30.97;;;16.57;;
18917;SDS011;9591;52.742;13.650;2023-06-22T03:04:16;27.60;;;15.60;;
18917;SDS011;9591;52.742;13.650;2023-06-22T03:07:03;28.07;;;16.10;;
18917;SDS011;9591;52.742;13.650;2023-06-22T03:09:52;28.80;;;16.03;;
18917;SDS011;9591;52.742;13.650;2023-06-22T03:12:40;32.73;;;17.10;;
18917;SDS011;9591;52.742;13.650;2023-06-22T03:15:28;28.80;;;16.13;;
18917;SDS011;9591;52.742;13.650;2023-06-22T03:18:16;33.03;;;16.93;;
18917;SDS011;9591;52.742;13.650;2023-06-22T03:21:03;33.60;;;16.37;;
18917;SDS011;9591;52.742;13.650;2023-06-22T03:23:50;26.00;;;15.53;;
18917;SDS011;9591;52.742;13.650;2023-06-22T03:26:37;26.90;;;16.47;;
18917;SDS011;9591;52.742;13.650;2023-06-22T03:29:25;34.23;;;17.17;;
18917;SDS011;9591;52.742;13.650;2023-06-22T03:32:15;28.33;;;15.03;;
18917;SDS011;9591;52.742;13.650;2023-06-22T03:35:02;32.13;;;16.53;;
18917;SDS011;9591;52.742;13.650;2023-06-22T03:37:53;25.67;;;14.73;;
18917;SDS011;9591;52.742;13.650;2023-06-22T03:40:40;29.70;;;15.73;;
18917;SDS011;9591;52.742;13.650;2023-06-22T03:43:27;27.73;;;14.57;;
18917;SDS011;9591;52.742;13.650;2023-06-22T03:46:15;31.87;;;14.83;;
18917;SDS011;9591;52.742;13.650;2023-06-22T03:49:01;32.63;;;14.13;;
18917;SDS011;9591;52.742;13.650;2023-06-22T03:51:49;30.63;;;15.07;;
18917;SDS011;9591;52.742;13.650;2023-06-22T03:54:36;28.40;;;14.80;;
18917;SDS011;9591;52.742;13.650;2023-06-22T03:57:23;28.87;;;14.73;;
18917;SDS011;9591;52.742;13.650;2023-06-22T04:00:10;28.23;;;15.27;;
18917;SDS011;9591;52.742;13.650;2023-06-22T04:03:00;27.10;;;13.77;;
18917;SDS011;9591;52.742;13.650;2023-06-22T04:05:47;24.93;;;14.70;;
18917;SDS011;9591;52.742;13.650;2023-06-22T04:08:34;23.57;;;14.17;;
18917;SDS011;9591;52.742;13.650;2023-06-22T04:11:21;24.47;;;14.53;;
18917;SDS011;9591;52.742;13.650;2023-06-22T04:14:08;28.60;;;14.23;;
18917;SDS011;9591;52.742;13.650;2023-06-22T04:16:55;21.90;;;13.70;;
18917;SDS011;9591;52.742;13.650;2023-06-22T04:19:43;24.17;;;14.00;;
18917;SDS011;9591;52.742;13.650;2023-06-22T04:22:30;24.73;;;14.70;;
18917;SDS011;9591;52.742;13.650;2023-06-22T04:25:17;24.63;;;14.00;;
18917;SDS011;9591;52.742;13.650;2023-06-22T04:28:03;29.13;;;15.00;;
18917;SDS011;9591;52.742;13.650;2023-06-22T04:30:50;26.13;;;13.83;;
18917;SDS011;9591;52.742;13.650;2023-06-22T04:33:37;22.60;;;13.87;;
18917;SDS011;9591;52.742;13.650;2023-06-22T04:36:27;25.97;;;14.17;;
18917;SDS011;9591;52.742;13.650;2023-06-22T04:39:22;23.37;;;13.27;;
18917;SDS011;9591;52.742;13.650;2023-06-22T04:42:09;26.17;;;13.90;;
18917;SDS011;9591;52.742;13.650;2023-06-22T04:44:56;22.13;;;12.20;;
18917;SDS011;9591;52.742;13.650;2023-06-22T04:47:46;19.73;;;12.40;;
18917;SDS011;9591;52.742;13.650;2023-06-22T04:50:33;21.60;;;13.10;;
18917;SDS011;9591;52.742;13.650;2023-06-22T04:53:21;23.00;;;13.80;;
18917;SDS011;9591;52.742;13.650;2023-06-22T04:56:08;21.53;;;13.00;;
18917;SDS011;9591;52.742;13.650;2023-06-22T04:58:55;21.07;;;12.77;;
18917;SDS011;9591;52.742;13.650;2023-06-22T05:01:41;21.57;;;12.47;;
18917;SDS011;9591;52.742;13.650;2023-06-22T05:04:29;22.93;;;12.60;;
18917;SDS011;9591;52.742;13.650;2023-06-22T05:07:17;17.83;;;11.10;;
18917;SDS011;9591;52.742;13.650;2023-06-22T05:10:05;17.30;;;11.60;;
18917;SDS011;9591;52.742;13.650;2023-06-22T05:12:52;18.37;;;10.50;;
18917;SDS011;9591;52.742;13.650;2023-06-22T05:15:39;20.10;;;11.70;;
18917;SDS011;9591;52.742;13.650;2023-06-22T05:18:26;18.00;;;10.50;;
18917;SDS011;9591;52.742;13.650;2023-06-22T05:21:14;15.37;;;9.50;;
18917;SDS011;9591;52.742;13.650;2023-06-22T05:24:01;15.23;;;10.20;;
18917;SDS011;9591;52.742;13.650;2023-06-22T05:26:49;17.40;;;9.93;;
18917;SDS011;9591;52.742;13.650;2023-06-22T05:29:36;16.80;;;9.07;;
18917;SDS011;9591;52.742;13.650;2023-06-22T05:32:23;15.40;;;7.03;;
18917;SDS011;9591;52.742;13.650;2023-06-22T05:35:10;15.93;;;7.17;;
18917;SDS011;9591;52.742;13.650;2023-06-22T05:37:57;11.00;;;7.57;;
18917;SDS011;9591;52.742;13.650;2023-06-22T05:40:44;12.57;;;6.70;;
18917;SDS011;9591;52.742;13.650;2023-06-22T05:43:32;8.97;;;6.43;;
18917;SDS011;9591;52.742;13.650;2023-06-22T05:46:18;10.47;;;6.03;;
18917;SDS011;9591;52.742;13.650;2023-06-22T05:49:05;10.03;;;5.83;;
18917;SDS011;9591;52.742;13.650;2023-06-22T05:51:52;12.77;;;6.10;;
18917;SDS011;9591;52.742;13.650;2023-06-22T05:54:39;11.30;;;5.23;;
18917;SDS011;9591;52.742;13.650;2023-06-22T05:57:27;8.07;;;4.90;;
18917;SDS011;9591;52.742;13.650;2023-06-22T06:00:15;6.97;;;4.60;;
18917;SDS011;9591;52.742;13.650;2023-06-22T06:03:03;9.43;;;5.03;;
18917;SDS011;9591;52.742;13.650;2023-06-22T06:05:50;9.30;;;4.97;;
18917;SDS011;9591;52.742;13.650;2023-06-22T06:08:37;6.40;;;3.80;;
18917;SDS011;9591;52.742;13.650;2023-06-22T06:11:23;8.23;;;3.70;;
18917;SDS011;9591;52.742;13.650;2023-06-22T06:14:11;8.90;;;4.27;;
18917;SDS011;9591;52.742;13.650;2023-06-22T06:16:59;6.53;;;3.47;;
18917;SDS011;9591;52.742;13.650;2023-06-22T06:19:46;8.77;;;3.67;;
18917;SDS011;9591;52.742;13.650;2023-06-22T06:22:33;7.70;;;3.23;;
18917;SDS011;9591;52.742;13.650;2023-06-22T06:25:19;5.13;;;3.40;;
18917;SDS011;9591;52.742;13.650;2023-06-22T06:28:07;6.27;;;3.90;;
18917;SDS011;9591;52.742;13.650;2023-06-22T06:30:54;4.23;;;3.03;;
18917;SDS011;9591;52.742;13.650;2023-06-22T06:33:42;6.20;;;3.10;;
18917;SDS011;9591;52.742;13.650;2023-06-22T06:36:29;4.93;;;3.10;;
18917;SDS011;9591;52.742;13.650;2023-06-22T06:39:15;6.40;;;4.20;;
18917;SDS011;9591;52.742;13.650;2023-06-22T06:42:03;5.67;;;3.00;;
18917;SDS011;9591;52.742;13.650;2023-06-22T06:44:50;4.20;;;2.83;;
18917;SDS011;9591;52.742;13.650;2023-06-22T06:47:37;6.53;;;3.57;;
18917;SDS011;9591;52.742;13.650;2023-06-22T06:50:26;7.60;;;3.93;;
18917;SDS011;9591;52.742;13.650;2023-06-22T06:53:18;3.87;;;3.20;;
18917;SDS011;9591;52.742;13.650;2023-06-22T06:56:09;4.30;;;3.60;;
18917;SDS011;9591;52.742;13.650;2023-06-22T06:58:58;6.97;;;3.37;;
18917;SDS011;9591;52.742;13.650;2023-06-22T07:01:48;4.63;;;2.90;;
18917;SDS011;9591;52.742;13.650;2023-06-22T07:04:37;5.70;;;2.87;;
18917;SDS011;9591;52.742;13.650;2023-06-22T07:07:42;3.53;;;2.83;;
18917;SDS011;9591;52.742;13.650;2023-06-22T07:10:31;6.13;;;2.87;;
18917;SDS011;9591;52.742;13.650;2023-06-22T07:13:20;3.33;;;2.30;;
18917;SDS011;9591;52.742;13.650;2023-06-22T07:16:10;2.77;;;2.53;;
18917;SDS011;9591;52.742;13.650;2023-06-22T07:19:01;2.70;;;2.40;;
18917;SDS011;9591;52.742;13.650;2023-06-22T07:22:01;4.13;;;3.17;;
18917;SDS011;9591;52.742;13.650;2023-06-22T07:24:51;3.60;;;2.87;;
18917;SDS011;9591;52.742;13.650;2023-06-22T07:27:43;4.67;;;2.27;;
18917;SDS011;9591;52.742;13.650;2023-06-22T07:30:40;2.63;;;2.13;;
18917;SDS011;9591;52.742;13.650;2023-06-22T07:33:33;3.77;;;3.00;;
18917;SDS011;9591;52.742;13.650;2023-06-22T07:36:21;5.57;;;3.13;;
18917;SDS011;9591;52.742;13.650;2023-06-22T07:39:08;5.13;;;2.27;;
18917;SDS011;9591;52.742;13.650;2023-06-22T07:41:57;2.67;;;2.20;;
18917;SDS011;9591;52.742;13.650;2023-06-22T07:44:45;3.50;;;2.53;;
18917;SDS011;9591;52.742;13.650;2023-06-22T07:47:32;5.03;;;2.33;;
18917;SDS011;9591;52.742;13.650;2023-06-22T07:50:21;4.43;;;2.10;;
18917;SDS011;9591;52.742;13.650;2023-06-22T07:53:08;5.53;;;2.30;;
18917;SDS011;9591;52.742;13.650;2023-06-22T07:55:56;3.70;;;2.00;;
18917;SDS011;9591;52.742;13.650;2023-06-22T07:58:51;3.87;;;2.80;;
18917;SDS011;9591;52.742;13.650;2023-06-22T08:01:39;11.93;;;3.47;;
18917;SDS011;9591;52.742;13.650;2023-06-22T08:04:29;8.43;;;2.57;;
18917;SDS011;9591;52.742;13.650;2023-06-22T08:07:20;21.37;;;8.90;;
18917;SDS011;9591;52.742;13.650;2023-06-22T08:10:10;5.07;;;2.63;;
18917;SDS011;9591;52.742;13.650;2023-06-22T08:12:58;19.60;;;3.43;;
18917;SDS011;9591;52.742;13.650;2023-06-22T08:15:47;5.87;;;2.70;;
18917;SDS011;9591;52.742;13.650;2023-06-22T08:18:35;5.30;;;2.50;;
18917;SDS011;9591;52.742;13.650;2023-06-22T08:21:22;2.43;;;2.00;;
18917;SDS011;9591;52.742;13.650;2023-06-22T08:24:14;5.80;;;2.33;;
18917;SDS011;9591;52.742;13.650;2023-06-22T08:27:02;5.13;;;2.60;;
18917;SDS011;9591;52.742;13.650;2023-06-22T08:29:52;4.63;;;2.30;;
18917;SDS011;9591;52.742;13.650;2023-06-22T08:32:50;3.13;;;2.23;;
18917;SDS011;9591;52.742;13.650;2023-06-22T08:35:37;2.90;;;2.10;;
18917;SDS011;9591;52.742;13.650;2023-06-22T08:38:29;3.53;;;2.23;;
18917;SDS011;9591;52.742;13.650;2023-06-22T08:41:21;4.30;;;2.30;;
18917;SDS011;9591;52.742;13.650;2023-06-22T08:44:10;2.90;;;2.23;;
18917;SDS011;9591;52.742;13.650;2023-06-22T08:46:58;2.60;;;2.20;;
18917;SDS011;9591;52.742;13.650;2023-06-22T08:49:48;4.43;;;2.20;;
18917;SDS011;9591;52.742;13.650;2023-06-22T08:52:37;3.13;;;2.37;;
18917;SDS011;9591;52.742;13.650;2023-06-22T08:55:27;4.40;;;2.20;;
18917;SDS011;9591;52.742;13.650;2023-06-22T08:58:15;3.93;;;2.40;;
18917;SDS011;9591;52.742;13.650;2023-06-22T09:01:03;5.03;;;2.40;;
18917;SDS011;9591;52.742;13.650;2023-06-22T09:03:50;4.30;;;2.40;;
18917;SDS011;9591;52.742;13.650;2023-06-22T09:06:44;4.00;;;2.30;;
18917;SDS011;9591;52.742;13.650;2023-06-22T09:09:31;3.73;;;2.10;;
18917;SDS011;9591;52.742;13.650;2023-06-22T09:12:19;2.23;;;1.93;;
18917;SDS011;9591;52.742;13.650;2023-06-22T09:15:11;3.70;;;2.37;;
18917;SDS011;9591;52.742;13.650;2023-06-22T09:18:02;5.43;;;2.47;;
18917;SDS011;9591;52.742;13.650;2023-06-22T09:20:49;3.93;;;3.00;;
18917;SDS011;9591;52.742;13.650;2023-06-22T09:23:37;5.97;;;2.60;;
18917;SDS011;9591;52.742;13.650;2023-06-22T09:26:25;4.27;;;2.77;;
18917;SDS011;9591;52.742;13.650;2023-06-22T09:29:12;4.20;;;2.37;;
18917;SDS011;9591;52.742;13.650;2023-06-22T09:31:59;14.60;;;3.20;;
18917;SDS011;9591;52.742;13.650;2023-06-22T09:34:47;7.87;;;2.50;;
18917;SDS011;9591;52.742;13.650;2023-06-22T09:37:34;3.00;;;2.70;;
18917;SDS011;9591;52.742;13.650;2023-06-22T09:40:22;3.00;;;2.50;;
18917;SDS011;9591;52.742;13.650;2023-06-22T09:43:10;4.90;;;2.57;;
18917;SDS011;9591;52.742;13.650;2023-06-22T09:45:58;3.73;;;2.40;;
18917;SDS011;9591;52.742;13.650;2023-06-22T09:48:45;3.27;;;2.50;;
18917;SDS011;9591;52.742;13.650;2023-06-22T09:51:32;5.20;;;2.83;;
18917;SDS011;9591;52.742;13.650;2023-06-22T09:54:18;4.30;;;2.60;;
18917;SDS011;9591;52.742;13.650;2023-06-22T09:57:07;3.70;;;2.90;;
18917;SDS011;9591;52.742;13.650;2023-06-22T09:59:55;3.73;;;2.70;;
18917;SDS011;9591;52.742;13.650;2023-06-22T10:02:42;5.30;;;2.53;;
18917;SDS011;9591;52.742;13.650;2023-06-22T10:05:30;2.83;;;2.40;;
18917;SDS011;9591;52.742;13.650;2023-06-22T10:08:18;5.73;;;2.60;;
18917;SDS011;9591;52.742;13.650;2023-06-22T10:11:05;3.07;;;2.60;;
18917;SDS011;9591;52.742;13.650;2023-06-22T10:13:53;4.83;;;2.60;;
18917;SDS011;9591;52.742;13.650;2023-06-22T10:16:40;4.80;;;3.23;;
18917;SDS011;9591;52.742;13.650;2023-06-22T10:19:27;3.80;;;2.77;;
18917;SDS011;9591;52.742;13.650;2023-06-22T10:22:13;3.47;;;2.70;;
18917;SDS011;9591;52.742;13.650;2023-06-22T10:25:00;6.77;;;2.83;;
18917;SDS011;9591;52.742;13.650;2023-06-22T10:27:47;3.30;;;2.13;;
18917;SDS011;9591;52.742;13.650;2023-06-22T10:30:35;4.50;;;2.73;;
18917;SDS011;9591;52.742;13.650;2023-06-22T10:33:22;3.13;;;2.43;;
18917;SDS011;9591;52.742;13.650;2023-06-22T10:36:09;4.80;;;3.50;;
18917;SDS011;9591;52.742;13.650;2023-06-22T10:38:56;4.00;;;3.00;;
18917;SDS011;9591;52.742;13.650;2023-06-22T10:41:44;3.63;;;2.50;;
18917;SDS011;9591;52.742;13.650;2023-06-22T10:44:31;4.97;;;2.87;;
18917;SDS011;9591;52.742;13.650;2023-06-22T10:47:19;3.23;;;2.50;;
18917;SDS011;9591;52.742;13.650;2023-06-22T10:50:06;3.00;;;2.53;;
18917;SDS011;9591;52.742;13.650;2023-06-22T10:52:54;5.10;;;3.00;;
18917;SDS011;9591;52.742;13.650;2023-06-22T10:55:44;4.37;;;3.00;;
18917;SDS011;9591;52.742;13.650;2023-06-22T10:58:42;8.23;;;3.10;;
18917;SDS011;9591;52.742;13.650;2023-06-22T11:01:31;4.93;;;3.00;;
18917;SDS011;9591;52.742;13.650;2023-06-22T11:04:23;4.73;;;3.17;;
18917;SDS011;9591;52.742;13.650;2023-06-22T11:07:11;5.73;;;3.30;;
18917;SDS011;9591;52.742;13.650;2023-06-22T11:09:58;5.73;;;3.40;;
18917;SDS011;9591;52.742;13.650;2023-06-22T11:12:44;5.20;;;3.77;;
18917;SDS011;9591;52.742;13.650;2023-06-22T11:15:31;6.50;;;4.77;;
18917;SDS011;9591;52.742;13.650;2023-06-22T11:18:18;9.27;;;3.60;;
18917;SDS011;9591;52.742;13.650;2023-06-22T11:21:06;6.83;;;3.87;;
18917;SDS011;9591;52.742;13.650;2023-06-22T11:23:53;4.60;;;3.50;;
18917;SDS011;9591;52.742;13.650;2023-06-22T11:26:40;5.90;;;3.17;;
18917;SDS011;9591;52.742;13.650;2023-06-22T11:29:27;4.40;;;3.43;;
18917;SDS011;9591;52.742;13.650;2023-06-22T11:32:22;4.17;;;3.53;;
18917;SDS011;9591;52.742;13.650;2023-06-22T11:35:09;4.50;;;3.80;;
18917;SDS011;9591;52.742;13.650;2023-06-22T11:37:58;3.73;;;3.33;;
18917;SDS011;9591;52.742;13.650;2023-06-22T11:40:45;4.53;;;3.70;;
18917;SDS011;9591;52.742;13.650;2023-06-22T11:43:33;5.70;;;3.60;;
18917;SDS011;9591;52.742;13.650;2023-06-22T11:46:21;5.57;;;3.80;;
18917;SDS011;9591;52.742;13.650;2023-06-22T11:49:08;5.17;;;3.83;;
18917;SDS011;9591;52.742;13.650;2023-06-22T11:51:55;7.47;;;3.47;;
18917;SDS011;9591;52.742;13.650;2023-06-22T11:54:44;4.20;;;3.37;;
18917;SDS011;9591;52.742;13.650;2023-06-22T11:57:32;5.40;;;3.80;;
18917;SDS011;9591;52.742;13.650;2023-06-22T12:00:23;6.03;;;4.20;;
18917;SDS011;9591;52.742;13.650;2023-06-22T12:03:36;14.23;;;4.57;;
18917;SDS011;9591;52.742;13.650;2023-06-22T12:06:27;4.67;;;3.30;;
18917;SDS011;9591;52.742;13.650;2023-06-22T12:09:14;5.33;;;3.60;;
18917;SDS011;9591;52.742;13.650;2023-06-22T12:12:02;5.13;;;3.70;;
18917;SDS011;9591;52.742;13.650;2023-06-22T12:14:53;5.13;;;3.60;;
18917;SDS011;9591;52.742;13.650;2023-06-22T12:17:40;4.30;;;3.90;;
18917;SDS011;9591;52.742;13.650;2023-06-22T12:20:26;6.77;;;4.10;;
18917;SDS011;9591;52.742;13.650;2023-06-22T12:23:14;4.70;;;3.90;;
18917;SDS011;9591;52.742;13.650;2023-06-22T12:26:01;6.17;;;4.13;;
18917;SDS011;9591;52.742;13.650;2023-06-22T12:28:50;9.63;;;6.50;;
18917;SDS011;9591;52.742;13.650;2023-06-22T12:31:36;5.17;;;4.00;;
18917;SDS011;9591;52.742;13.650;2023-06-22T12:34:24;7.43;;;4.33;;
18917;SDS011;9591;52.742;13.650;2023-06-22T12:37:11;6.30;;;4.07;;
18917;SDS011;9591;52.742;13.650;2023-06-22T12:39:58;6.63;;;3.80;;
18917;SDS011;9591;52.742;13.650;2023-06-22T12:42:45;6.63;;;4.40;;
18917;SDS011;9591;52.742;13.650;2023-06-22T12:45:33;4.70;;;3.90;;
18917;SDS011;9591;52.742;13.650;2023-06-22T12:48:19;5.97;;;4.20;;
18917;SDS011;9591;52.742;13.650;2023-06-22T12:51:06;4.87;;;3.77;;
18917;SDS011;9591;52.742;13.650;2023-06-22T12:53:53;10.07;;;4.30;;
18917;SDS011;9591;52.742;13.650;2023-06-22T12:56:40;6.07;;;3.93;;
18917;SDS011;9591;52.742;13.650;2023-06-22T12:59:29;5.77;;;3.40;;
18917;SDS011;9591;52.742;13.650;2023-06-22T13:02:17;6.37;;;4.60;;
18917;SDS011;9591;52.742;13.650;2023-06-22T13:05:04;5.47;;;3.80;;
18917;SDS011;9591;52.742;13.650;2023-06-22T13:07:51;5.70;;;3.97;;
18917;SDS011;9591;52.742;13.650;2023-06-22T13:10:40;5.57;;;3.87;;
18917;SDS011;9591;52.742;13.650;2023-06-22T13:13:26;5.47;;;3.80;;
18917;SDS011;9591;52.742;13.650;2023-06-22T13:16:13;5.47;;;4.10;;
18917;SDS011;9591;52.742;13.650;2023-06-22T13:19:01;5.87;;;4.43;;
18917;SDS011;9591;52.742;13.650;2023-06-22T13:21:48;6.03;;;3.97;;
18917;SDS011;9591;52.742;13.650;2023-06-22T13:24:35;5.93;;;4.00;;
18917;SDS011;9591;52.742;13.650;2023-06-22T13:27:21;6.30;;;4.57;;
18917;SDS011;9591;52.742;13.650;2023-06-22T13:30:08;5.93;;;4.00;;
18917;SDS011;9591;52.742;13.650;2023-06-22T13:32:58;4.93;;;4.03;;
18917;SDS011;9591;52.742;13.650;2023-06-22T13:35:46;7.33;;;4.33;;
18917;SDS011;9591;52.742;13.650;2023-06-22T13:38:34;11.53;;;4.63;;
18917;SDS011;9591;52.742;13.650;2023-06-22T13:41:23;5.63;;;4.10;;
18917;SDS011;9591;52.742;13.650;2023-06-22T13:44:10;5.63;;;3.97;;
18917;SDS011;9591;52.742;13.650;2023-06-22T13:46:57;5.20;;;4.20;;
18917;SDS011;9591;52.742;13.650;2023-06-22T13:49:44;15.07;;;4.80;;
18917;SDS011;9591;52.742;13.650;2023-06-22T13:52:32;6.60;;;4.50;;
18917;SDS011;9591;52.742;13.650;2023-06-22T13:55:19;5.40;;;4.27;;
18917;SDS011;9591;52.742;13.650;2023-06-22T13:58:06;7.87;;;4.57;;
18917;SDS011;9591;52.742;13.650;2023-06-22T14:00:53;5.43;;;4.30;;
18917;SDS011;9591;52.742;13.650;2023-06-22T14:03:41;5.03;;;4.17;;
18917;SDS011;9591;52.742;13.650;2023-06-22T14:06:29;4.93;;;4.17;;
18917;SDS011;9591;52.742;13.650;2023-06-22T14:09:17;6.70;;;4.27;;
18917;SDS011;9591;52.742;13.650;2023-06-22T14:12:04;9.43;;;4.40;;
18917;SDS011;9591;52.742;13.650;2023-06-22T14:14:52;7.07;;;4.03;;
18917;SDS011;9591;52.742;13.650;2023-06-22T14:17:39;4.80;;;4.30;;
18917;SDS011;9591;52.742;13.650;2023-06-22T14:20:26;6.77;;;4.50;;
18917;SDS011;9591;52.742;13.650;2023-06-22T14:23:13;7.00;;;4.10;;
18917;SDS011;9591;52.742;13.650;2023-06-22T14:26:01;5.20;;;4.10;;
18917;SDS011;9591;52.742;13.650;2023-06-22T14:28:48;8.77;;;4.77;;
18917;SDS011;9591;52.742;13.650;2023-06-22T14:31:36;6.73;;;4.67;;
18917;SDS011;9591;52.742;13.650;2023-06-22T14:34:23;4.83;;;3.83;;
18917;SDS011;9591;52.742;13.650;2023-06-22T14:37:10;5.80;;;4.30;;
18917;SDS011;9591;52.742;13.650;2023-06-22T14:39:58;7.23;;;4.20;;
18917;SDS011;9591;52.742;13.650;2023-06-22T14:42:46;8.27;;;4.43;;
18917;SDS011;9591;52.742;13.650;2023-06-22T14:45:33;12.50;;;4.37;;
18917;SDS011;9591;52.742;13.650;2023-06-22T14:48:20;5.17;;;3.47;;
18917;SDS011;9591;52.742;13.650;2023-06-22T14:51:07;7.07;;;4.47;;
18917;SDS011;9591;52.742;13.650;2023-06-22T14:53:55;8.03;;;4.77;;
18917;SDS011;9591;52.742;13.650;2023-06-22T14:56:42;7.00;;;4.40;;
18917;SDS011;9591;52.742;13.650;2023-06-22T14:59:30;6.93;;;3.80;;
18917;SDS011;9591;52.742;13.650;2023-06-22T15:02:17;5.70;;;4.43;;
18917;SDS011;9591;52.742;13.650;2023-06-22T15:05:04;5.57;;;3.93;;
18917;SDS011;9591;52.742;13.650;2023-06-22T15:07:51;6.33;;;4.20;;
18917;SDS011;9591;52.742;13.650;2023-06-22T15:10:38;6.43;;;4.33;;
18917;SDS011;9591;52.742;13.650;2023-06-22T15:13:24;4.63;;;3.80;;
18917;SDS011;9591;52.742;13.650;2023-06-22T15:16:12;9.13;;;4.57;;
18917;SDS011;9591;52.742;13.650;2023-06-22T15:18:59;7.27;;;4.10;;
18917;SDS011;9591;52.742;13.650;2023-06-22T15:21:46;4.83;;;4.10;;
18917;SDS011;9591;52.742;13.650;2023-06-22T15:24:33;5.07;;;4.20;;
18917;SDS011;9591;52.742;13.650;2023-06-22T15:27:20;5.70;;;4.13;;
18917;SDS011;9591;52.742;13.650;2023-06-22T15:30:07;6.50;;;4.30;;
18917;SDS011;9591;52.742;13.650;2023-06-22T15:32:56;5.27;;;4.10;;
18917;SDS011;9591;52.742;13.650;2023-06-22T15:35:43;6.07;;;4.27;;
18917;SDS011;9591;52.742;13.650;2023-06-22T15:38:30;7.57;;;4.17;;
18917;SDS011;9591;52.742;13.650;2023-06-22T15:41:17;6.60;;;4.30;;
18917;SDS011;9591;52.742;13.650;2023-06-22T15:44:03;5.03;;;4.07;;
18917;SDS011;9591;52.742;13.650;2023-06-22T15:46:50;7.63;;;4.10;;
18917;SDS011;9591;52.742;13.650;2023-06-22T15:49:38;8.87;;;4.47;;
18917;SDS011;9591;52.742;13.650;2023-06-22T15:52:25;6.47;;;4.33;;
18917;SDS011;9591;52.742;13.650;2023-06-22T15:55:13;6.57;;;4.60;;
18917;SDS011;9591;52.742;13.650;2023-06-22T15:57:59;4.93;;;4.07;;
18917;SDS011;9591;52.742;13.650;2023-06-22T16:00:46;8.10;;;4.47;;
18917;SDS011;9591;52.742;13.650;2023-06-22T16:03:37;5.63;;;4.50;;
18917;SDS011;9591;52.742;13.650;2023-06-22T16:06:26;4.70;;;4.13;;
18917;SDS011;9591;52.742;13.650;2023-06-22T16:09:12;6.83;;;4.53;;
18917;SDS011;9591;52.742;13.650;2023-06-22T16:12:00;5.17;;;4.20;;
18917;SDS011;9591;52.742;13.650;2023-06-22T16:14:47;5.83;;;4.57;;
18917;SDS011;9591;52.742;13.650;2023-06-22T16:17:34;8.67;;;4.40;;
18917;SDS011;9591;52.742;13.650;2023-06-22T16:20:22;5.57;;;4.50;;
18917;SDS011;9591;52.742;13.650;2023-06-22T16:23:11;7.97;;;4.97;;
18917;SDS011;9591;52.742;13.650;2023-06-22T16:25:57;7.53;;;4.27;;
18917;SDS011;9591;52.742;13.650;2023-06-22T16:28:44;5.17;;;4.43;;
18917;SDS011;9591;52.742;13.650;2023-06-22T16:31:31;5.63;;;4.20;;
18917;SDS011;9591;52.742;13.650;2023-06-22T16:34:18;6.10;;;4.50;;
18917;SDS011;9591;52.742;13.650;2023-06-22T16:37:05;5.50;;;4.47;;
18917;SDS011;9591;52.742;13.650;2023-06-22T16:39:53;7.73;;;4.10;;
18917;SDS011;9591;52.742;13.650;2023-06-22T16:42:40;5.17;;;4.60;;